createdAt,value
2019-02-21T00:07:25.833Z,9.48
2019-02-21T00:17:31.919Z,9.80
2019-02-21T00:27:37.943Z,9.33
2019-02-21T00:37:43.835Z,8.70
2019-02-21T00:47:49.750Z,8.75
2019-02-21T00:57:55.579Z,10.88
2019-02-21T01:08:01.504Z,10.88
2019-02-21T01:28:12.191Z,9.53
2019-02-21T01:38:18.175Z,12.05
2019-02-21T01:48:24.022Z,9.03
2019-02-21T01:58:29.861Z,8.68
2019-02-21T02:08:35.880Z,9.08
2019-02-21T02:18:41.659Z,11.78
2019-02-21T02:28:47.476Z,12.63
2019-02-21T02:38:53.342Z,11.97
2019-02-21T02:48:59.157Z,8.85
2019-02-21T03:09:11.805Z,12.58
2019-02-21T03:19:17.721Z,10.45
2019-02-21T03:29:23.511Z,10.50
2019-02-21T03:39:29.397Z,9.98
2019-02-21T03:59:40.159Z,10.50
2019-02-21T04:09:45.915Z,11.22
2019-02-21T04:19:51.883Z,9.38
2019-02-21T04:29:57.768Z,8.13
2019-02-21T04:50:08.927Z,36.93
2019-02-21T05:00:14.964Z,50.20
2019-02-21T05:20:25.788Z,39.30
2019-02-21T05:30:31.759Z,35.50
2019-02-21T05:40:49.125Z,42.38
2019-02-21T05:50:59.291Z,35.17
2019-02-21T06:01:12.646Z,28.20
2019-02-21T06:11:22.936Z,24.77
2019-02-21T06:21:28.604Z,21.68
2019-02-21T06:31:34.540Z,22.13
2019-02-21T06:51:45.266Z,19.17
2019-02-21T07:01:51.233Z,16.48
2019-02-21T07:11:57.136Z,15.23
2019-02-21T07:22:02.987Z,14.55
2019-02-21T07:32:08.928Z,22.60
2019-02-21T07:52:20.180Z,29.20
2019-02-21T08:02:26.075Z,23.50
2019-02-21T08:22:36.856Z,40.08
2019-02-21T08:32:50.607Z,36.68
2019-02-21T08:42:56.512Z,27.37
2019-02-21T08:53:02.387Z,25.40
2019-02-21T09:03:08.249Z,26.60
2019-02-21T09:13:14.138Z,28.83
2019-02-21T09:23:19.943Z,28.15
2019-02-21T09:33:25.851Z,22.22
2019-02-21T09:43:31.724Z,28.62
2019-02-21T09:53:37.565Z,33.92
2019-02-21T10:03:44.284Z,19.42
2019-02-21T10:13:50.487Z,26.77
2019-02-21T10:23:56.859Z,17.98
2019-02-21T10:34:02.850Z,13.53
2019-02-21T10:44:08.727Z,17.07
2019-02-21T10:54:14.589Z,19.82
2019-02-21T11:04:20.366Z,14.87
2019-02-21T11:14:26.609Z,19.82
2019-02-21T11:24:32.685Z,26.40
2019-02-21T11:34:38.703Z,13.50
2019-02-21T11:44:44.581Z,17.40
2019-02-21T11:54:50.503Z,12.63
2019-02-21T12:04:57.292Z,14.80
2019-02-21T12:15:03.231Z,13.72
2019-02-21T12:25:12.317Z,15.28
2019-02-21T12:35:28.789Z,15.00
2019-02-21T12:45:29.419Z,31.37
2019-02-21T12:55:35.084Z,98.03
2019-02-21T13:15:47.590Z,135.18
2019-02-21T13:25:53.426Z,100.92
2019-02-21T13:35:59.265Z,74.07
2019-02-21T13:46:05.131Z,60.28
2019-02-21T13:56:11.057Z,48.80
2019-02-21T14:06:19.187Z,59.48
2019-02-21T14:26:29.556Z,34.43
2019-02-21T14:36:35.712Z,36.42
2019-02-21T14:46:41.717Z,27.93
2019-02-21T14:56:47.679Z,24.20
2019-02-21T15:06:53.514Z,21.33
2019-02-21T15:16:59.442Z,24.10
2019-02-21T15:27:08.387Z,30.02
2019-02-21T15:47:30.822Z,21.35
2019-02-21T15:57:36.677Z,16.60
2019-02-21T16:07:42.580Z,17.52
2019-02-21T16:17:48.469Z,21.33
2019-02-21T16:27:55.370Z,20.45
2019-02-21T16:38:01.634Z,21.93
2019-02-21T16:58:12.726Z,25.20
2019-02-21T17:18:23.598Z,25.82
2019-02-21T17:28:29.549Z,22.00
2019-02-21T17:38:35.526Z,27.80
2019-02-21T17:48:41.428Z,18.75
2019-02-21T17:58:47.648Z,20.23
2019-02-21T18:08:55.139Z,31.55
2019-02-21T18:39:12.663Z,26.35
2019-02-21T18:49:19.742Z,28.52
2019-02-21T18:59:31.736Z,28.38
2019-02-21T19:09:33.624Z,19.62
2019-02-21T19:19:39.641Z,24.02
2019-02-21T19:29:45.726Z,18.32
2019-02-21T19:39:51.694Z,19.48
2019-02-21T19:49:57.703Z,20.12
2019-02-21T20:00:03.796Z,17.73
2019-02-21T20:10:11.653Z,18.65
2019-02-21T20:20:24.351Z,17.62
2019-02-21T20:30:30.740Z,15.32
2019-02-21T20:40:36.702Z,19.12
2019-02-21T20:50:42.785Z,13.45
2019-02-21T21:00:48.769Z,19.80
2019-02-21T21:10:54.790Z,14.18
2019-02-21T21:21:00.814Z,18.23
2019-02-21T21:31:06.841Z,12.37
2019-02-21T21:41:12.909Z,11.93
2019-02-21T21:51:18.875Z,11.15
2019-02-21T22:01:24.829Z,13.50
2019-02-21T22:11:30.833Z,10.85
2019-02-21T22:21:36.771Z,11.18
2019-02-21T22:31:42.681Z,8.85
2019-02-21T22:41:48.593Z,9.35
2019-02-21T22:51:54.437Z,10.95
2019-02-21T23:02:00.637Z,9.13
2019-02-21T23:12:06.614Z,8.15
2019-02-21T23:22:12.495Z,8.10
2019-02-21T23:32:18.400Z,9.50
2019-02-21T23:42:24.366Z,6.80
2019-02-21T23:52:31.317Z,7.55
